createdAt,value
2017-07-26T00:00:26.955Z,16.83
2017-07-26T00:02:54.367Z,16.90
2017-07-26T00:05:21.760Z,16.91
2017-07-26T00:07:49.161Z,16.96
2017-07-26T00:10:16.560Z,16.96
2017-07-26T00:12:43.983Z,16.98
2017-07-26T00:15:11.383Z,17.03
2017-07-26T00:17:38.787Z,17.00
2017-07-26T00:20:06.201Z,16.97
2017-07-26T00:22:33.660Z,17.00
2017-07-26T00:25:01.103Z,17.00
2017-07-26T00:27:28.515Z,17.01
2017-07-26T00:29:55.910Z,16.97
2017-07-26T00:32:23.307Z,16.95
2017-07-26T00:34:50.738Z,17.00
2017-07-26T00:37:18.139Z,17.00
2017-07-26T00:39:45.556Z,17.02
2017-07-26T00:42:12.975Z,17.04
2017-07-26T00:44:40.380Z,17.01
2017-07-26T00:47:07.783Z,16.99
2017-07-26T00:49:35.347Z,17.00
2017-07-26T00:52:02.746Z,17.02
2017-07-26T00:54:30.152Z,16.93
2017-07-26T00:56:57.577Z,16.97
2017-07-26T00:59:24.964Z,16.91
2017-07-26T01:01:52.360Z,16.93
2017-07-26T01:04:19.776Z,16.75
2017-07-26T01:06:47.176Z,16.70
2017-07-26T01:09:14.575Z,16.73
2017-07-26T01:11:41.996Z,16.83
2017-07-26T01:14:09.399Z,16.94
2017-07-26T01:16:36.797Z,16.89
2017-07-26T01:19:04.229Z,16.72
2017-07-26T01:21:31.608Z,16.76
2017-07-26T01:23:59.010Z,16.87
2017-07-26T01:26:26.432Z,16.94
2017-07-26T01:28:53.844Z,16.96
2017-07-26T01:31:21.236Z,16.95
2017-07-26T01:33:48.639Z,16.93
2017-07-26T01:36:16.039Z,16.94
2017-07-26T01:38:43.452Z,16.93
2017-07-26T01:41:10.867Z,16.85
2017-07-26T01:43:38.269Z,16.90
2017-07-26T01:46:05.683Z,16.93
2017-07-26T01:48:33.104Z,16.88
2017-07-26T01:51:00.495Z,16.96
2017-07-26T01:53:27.925Z,17.00
2017-07-26T01:55:55.334Z,16.95
2017-07-26T01:58:22.734Z,16.95
2017-07-26T02:00:50.128Z,16.94
2017-07-26T02:03:17.539Z,16.97
2017-07-26T02:05:44.935Z,16.90
2017-07-26T02:08:12.343Z,16.93
2017-07-26T02:10:39.751Z,16.95
2017-07-26T02:13:07.155Z,16.96
2017-07-26T02:15:34.571Z,17.01
2017-07-26T02:18:02.144Z,17.05
2017-07-26T02:20:29.578Z,17.05
2017-07-26T02:22:56.991Z,16.98
2017-07-26T02:25:24.399Z,17.01
2017-07-26T02:27:51.787Z,16.98
2017-07-26T02:30:19.196Z,17.00
2017-07-26T02:32:46.607Z,17.01
2017-07-26T02:35:14.022Z,16.82
2017-07-26T02:37:41.415Z,16.85
2017-07-26T02:40:08.834Z,16.83
2017-07-26T02:42:36.223Z,16.89
2017-07-26T02:45:03.624Z,16.91
2017-07-26T02:47:31.191Z,16.89
2017-07-26T02:49:58.584Z,16.87
2017-07-26T02:52:25.988Z,16.93
2017-07-26T02:54:53.626Z,16.90
2017-07-26T02:57:21.028Z,16.91
2017-07-26T02:59:48.419Z,16.91
2017-07-26T03:02:15.826Z,16.88
2017-07-26T03:04:43.226Z,16.90
2017-07-26T03:07:10.630Z,16.94
2017-07-26T03:09:38.040Z,16.94
2017-07-26T03:12:05.440Z,17.01
2017-07-26T03:14:32.828Z,16.99
2017-07-26T03:17:00.244Z,17.01
2017-07-26T03:19:27.635Z,16.98
2017-07-26T03:21:55.051Z,16.98
2017-07-26T03:24:22.463Z,17.03
2017-07-26T03:26:49.871Z,17.04
2017-07-26T03:29:17.284Z,17.02
2017-07-26T03:31:44.690Z,17.04
2017-07-26T03:34:12.092Z,17.03
2017-07-26T03:36:39.500Z,17.02
2017-07-26T03:39:06.928Z,16.99
2017-07-26T03:41:34.327Z,17.02
2017-07-26T03:44:01.720Z,17.03
2017-07-26T03:46:29.144Z,16.99
2017-07-26T03:48:56.538Z,16.94
2017-07-26T03:51:23.935Z,16.87
2017-07-26T03:53:51.484Z,16.95
2017-07-26T03:56:18.884Z,16.88
2017-07-26T03:58:46.288Z,16.89
2017-07-26T04:01:13.715Z,16.96
2017-07-26T04:03:41.102Z,16.93
2017-07-26T04:06:08.530Z,16.92
2017-07-26T04:08:35.940Z,16.95
2017-07-26T04:11:03.334Z,16.95
2017-07-26T04:13:30.726Z,16.96
2017-07-26T04:15:58.148Z,16.86
2017-07-26T04:18:25.562Z,16.81
2017-07-26T04:20:52.985Z,16.77
2017-07-26T04:23:20.383Z,16.75
2017-07-26T04:25:47.793Z,16.77
2017-07-26T04:28:15.214Z,16.80
2017-07-26T04:30:42.615Z,16.79
2017-07-26T04:33:10.019Z,16.76
2017-07-26T04:35:37.411Z,16.75
2017-07-26T04:38:04.819Z,16.72
2017-07-26T04:40:32.215Z,16.76
2017-07-26T04:42:59.615Z,16.74
2017-07-26T04:45:27.043Z,16.71
2017-07-26T04:47:54.439Z,16.75
2017-07-26T04:50:21.847Z,16.80
2017-07-26T04:52:49.254Z,16.72
2017-07-26T04:55:16.654Z,16.68
2017-07-26T04:57:44.067Z,16.70
2017-07-26T05:00:11.478Z,16.68
2017-07-26T05:02:38.879Z,16.66
2017-07-26T05:05:06.279Z,16.67
2017-07-26T05:07:33.726Z,16.65
2017-07-26T05:10:01.142Z,16.61
2017-07-26T05:12:28.545Z,16.66
2017-07-26T05:14:55.984Z,16.62
2017-07-26T05:17:23.379Z,16.66
2017-07-26T05:19:50.798Z,16.66
2017-07-26T05:22:18.195Z,16.60
2017-07-26T05:24:45.627Z,16.61
2017-07-26T05:27:13.019Z,16.56
2017-07-26T05:29:40.482Z,16.56
2017-07-26T05:32:07.887Z,16.65
2017-07-26T05:34:35.298Z,16.60
2017-07-26T05:37:02.711Z,16.57
2017-07-26T05:39:30.124Z,16.57
2017-07-26T05:41:57.530Z,16.62
2017-07-26T05:44:25.014Z,16.68
2017-07-26T05:46:52.422Z,16.69
2017-07-26T05:49:19.871Z,16.63
2017-07-26T05:51:47.288Z,16.67
2017-07-26T05:54:14.688Z,16.67
2017-07-26T05:56:42.161Z,16.72
2017-07-26T05:59:09.574Z,16.75
2017-07-26T06:01:36.987Z,16.83
2017-07-26T06:04:04.405Z,16.92
2017-07-26T06:06:31.810Z,16.92
2017-07-26T06:08:59.234Z,16.91
2017-07-26T06:11:26.671Z,16.83
2017-07-26T06:13:54.094Z,16.87
2017-07-26T06:16:21.523Z,16.75
2017-07-26T06:18:48.915Z,16.82
2017-07-26T06:21:16.337Z,16.87
2017-07-26T06:23:43.723Z,16.94
2017-07-26T06:26:11.165Z,16.96
2017-07-26T06:28:38.585Z,16.93
2017-07-26T06:31:06.026Z,17.11
2017-07-26T06:33:33.417Z,17.05
2017-07-26T06:36:00.919Z,17.09
2017-07-26T06:38:28.310Z,17.06
2017-07-26T06:40:55.719Z,17.14
2017-07-26T06:43:23.134Z,17.16
2017-07-26T06:45:50.562Z,17.18
2017-07-26T06:48:17.978Z,17.34
2017-07-26T06:50:45.408Z,17.39
2017-07-26T06:53:12.819Z,17.47
2017-07-26T06:55:40.206Z,17.42
2017-07-26T06:58:07.630Z,17.46
2017-07-26T07:00:35.042Z,17.64
2017-07-26T07:03:02.451Z,17.76
2017-07-26T07:05:30.871Z,17.85
2017-07-26T07:07:58.291Z,17.91
2017-07-26T07:10:25.703Z,17.90
2017-07-26T07:12:53.123Z,17.96
2017-07-26T07:15:20.525Z,17.90
2017-07-26T07:17:47.915Z,17.79
2017-07-26T07:20:15.335Z,17.81
2017-07-26T07:22:42.726Z,17.93
2017-07-26T07:25:10.123Z,18.07
2017-07-26T07:27:37.527Z,18.08
2017-07-26T07:30:04.922Z,17.89
2017-07-26T07:32:32.314Z,17.87
2017-07-26T07:34:59.727Z,17.86
2017-07-26T07:37:27.120Z,17.84
2017-07-26T07:39:54.516Z,17.86
2017-07-26T07:42:21.931Z,17.91
2017-07-26T07:44:49.324Z,17.97
2017-07-26T07:47:16.719Z,17.88
2017-07-26T07:49:44.130Z,17.93
2017-07-26T07:52:11.515Z,18.03
2017-07-26T07:54:38.911Z,17.90
2017-07-26T07:57:06.323Z,17.79
2017-07-26T07:59:33.742Z,17.85
2017-07-26T08:02:01.126Z,17.80
2017-07-26T08:04:28.658Z,17.78
2017-07-26T08:06:56.066Z,17.72
2017-07-26T08:09:23.454Z,17.77
2017-07-26T08:11:50.888Z,17.91
2017-07-26T08:14:18.281Z,17.89
2017-07-26T08:16:45.671Z,17.86
2017-07-26T08:19:13.138Z,17.81
2017-07-26T08:21:40.530Z,17.86
2017-07-26T08:24:07.918Z,17.94
2017-07-26T08:26:35.331Z,17.96
2017-07-26T08:29:02.735Z,18.12
2017-07-26T08:31:30.127Z,18.10
2017-07-26T08:33:57.540Z,18.31
2017-07-26T08:36:24.935Z,18.30
2017-07-26T08:38:52.331Z,18.26
2017-07-26T08:41:19.755Z,18.42
2017-07-26T08:43:47.139Z,18.54
2017-07-26T08:46:14.530Z,18.65
2017-07-26T08:48:41.950Z,18.88
2017-07-26T08:51:09.344Z,19.26
2017-07-26T08:53:36.743Z,19.29
2017-07-26T08:56:04.167Z,19.03
2017-07-26T08:58:31.564Z,18.86
2017-07-26T09:00:58.966Z,18.86
2017-07-26T09:03:26.381Z,18.89
2017-07-26T09:05:53.775Z,18.81
2017-07-26T09:08:21.179Z,18.89
2017-07-26T09:10:48.592Z,18.95
2017-07-26T09:13:15.988Z,18.96
2017-07-26T09:15:43.381Z,19.02
2017-07-26T09:18:10.787Z,19.22
2017-07-26T09:20:38.188Z,19.27
2017-07-26T09:23:05.578Z,19.41
2017-07-26T09:25:32.995Z,19.70
2017-07-26T09:28:00.391Z,20.10
2017-07-26T09:30:27.790Z,20.38
2017-07-26T09:32:55.198Z,20.50
2017-07-26T09:35:22.599Z,20.45
2017-07-26T09:37:50.283Z,20.47
2017-07-26T09:40:17.685Z,20.35
2017-07-26T09:42:45.099Z,20.13
2017-07-26T09:45:12.601Z,20.16
2017-07-26T09:47:40.023Z,20.36
2017-07-26T09:50:07.504Z,20.79
2017-07-26T09:52:34.951Z,21.06
2017-07-26T09:55:02.587Z,21.31
2017-07-26T09:57:30.884Z,21.92
2017-07-26T09:59:58.343Z,22.57
2017-07-26T10:02:25.795Z,22.97
2017-07-26T10:04:53.214Z,22.77
2017-07-26T10:07:20.611Z,22.46
2017-07-26T10:09:48.067Z,22.65
2017-07-26T10:12:15.476Z,22.83
2017-07-26T10:14:42.890Z,22.63
2017-07-26T10:17:10.337Z,22.60
2017-07-26T10:19:37.743Z,22.50
2017-07-26T10:22:05.167Z,22.43
2017-07-26T10:24:32.569Z,22.89
2017-07-26T10:26:59.971Z,23.32
2017-07-26T10:29:27.656Z,22.63
2017-07-26T10:31:55.083Z,22.15
2017-07-26T10:34:22.544Z,22.11
2017-07-26T10:36:49.950Z,22.47
2017-07-26T10:39:17.463Z,22.61
2017-07-26T10:41:44.874Z,22.51
2017-07-26T10:44:12.303Z,23.03
2017-07-26T10:46:39.749Z,23.56
2017-07-26T10:49:07.153Z,24.50
2017-07-26T10:51:34.607Z,24.10
2017-07-26T10:54:02.023Z,24.08
2017-07-26T10:59:35.420Z,24.43
2017-07-26T11:02:02.852Z,24.96
2017-07-26T11:04:30.251Z,25.14
2017-07-26T11:06:57.814Z,24.61
2017-07-26T11:09:25.234Z,24.48
2017-07-26T11:11:52.724Z,24.91
2017-07-26T11:14:20.262Z,25.10
2017-07-26T11:16:47.669Z,25.46
2017-07-26T11:19:15.069Z,25.95
2017-07-26T11:21:42.557Z,26.07
2017-07-26T11:24:09.972Z,26.07
2017-07-26T11:26:37.358Z,26.62
2017-07-26T11:29:04.801Z,26.33
2017-07-26T11:31:32.218Z,25.35
2017-07-26T11:33:59.606Z,24.62
2017-07-26T11:36:27.576Z,24.12
2017-07-26T11:38:54.955Z,23.72
2017-07-26T11:41:22.355Z,23.45
2017-07-26T11:43:49.797Z,23.08
2017-07-26T11:46:17.237Z,23.12
2017-07-26T11:48:44.685Z,22.82
2017-07-26T11:51:12.222Z,22.68
2017-07-26T11:53:39.630Z,22.68
2017-07-26T11:56:07.018Z,23.01
2017-07-26T11:58:34.540Z,22.83
2017-07-26T12:01:01.981Z,22.78
2017-07-26T12:03:30.194Z,22.64
2017-07-26T12:05:57.622Z,22.75
2017-07-26T12:08:24.994Z,22.31
2017-07-26T12:10:52.395Z,22.05
2017-07-26T12:13:21.319Z,22.24
2017-07-26T12:15:48.708Z,22.46
2017-07-26T12:18:16.115Z,22.65
2017-07-26T12:20:43.533Z,22.85
2017-07-26T12:23:10.950Z,23.06
2017-07-26T12:25:38.394Z,23.38
2017-07-26T12:28:06.138Z,23.44
2017-07-26T12:30:33.538Z,23.35
2017-07-26T12:33:00.952Z,23.32
2017-07-26T12:35:28.454Z,22.79
2017-07-26T12:37:55.842Z,22.59
2017-07-26T12:40:23.234Z,22.73
2017-07-26T12:42:50.821Z,22.55
2017-07-26T12:45:18.223Z,22.52
2017-07-26T12:47:45.630Z,22.67
2017-07-26T12:50:13.174Z,22.58
2017-07-26T12:52:40.571Z,22.56
2017-07-26T12:55:07.959Z,23.00
2017-07-26T12:57:35.458Z,23.45
2017-07-26T13:00:02.871Z,23.88
2017-07-26T13:02:30.274Z,23.99
2017-07-26T13:04:57.679Z,24.07
2017-07-26T13:07:25.104Z,23.97
2017-07-26T13:09:52.494Z,24.25
2017-07-26T13:12:19.919Z,24.36
2017-07-26T13:14:47.314Z,24.23
2017-07-26T13:17:14.705Z,24.25
2017-07-26T13:19:42.250Z,24.24
2017-07-26T13:22:09.634Z,24.09
2017-07-26T13:24:37.038Z,24.12
2017-07-26T13:27:04.655Z,24.28
2017-07-26T13:29:32.051Z,24.49
2017-07-26T13:31:59.446Z,24.10
2017-07-26T13:34:27.010Z,24.09
2017-07-26T13:36:54.406Z,24.38
2017-07-26T13:39:21.802Z,24.69
2017-07-26T13:41:49.207Z,24.72
2017-07-26T13:44:16.596Z,24.72
2017-07-26T13:46:44.021Z,24.57
2017-07-26T13:49:11.429Z,24.72
2017-07-26T13:51:38.819Z,24.70
2017-07-26T13:54:06.206Z,24.84
2017-07-26T13:56:33.630Z,24.88
2017-07-26T13:59:01.035Z,24.86
2017-07-26T14:01:28.450Z,24.62
2017-07-26T14:03:55.903Z,24.70
2017-07-26T14:06:23.286Z,24.93
2017-07-26T14:08:55.275Z,24.87
2017-07-26T14:11:22.681Z,24.71
2017-07-26T14:13:51.043Z,24.79
2017-07-26T14:16:18.419Z,24.87
2017-07-26T14:18:45.834Z,25.03
2017-07-26T14:21:13.235Z,24.95
2017-07-26T14:23:40.687Z,25.13
2017-07-26T14:26:08.278Z,24.84
2017-07-26T14:28:35.655Z,24.83
2017-07-26T14:31:03.058Z,24.84
2017-07-26T14:33:31.782Z,24.58
2017-07-26T14:35:59.170Z,24.63
2017-07-26T14:38:26.630Z,24.81
2017-07-26T14:40:54.143Z,24.69
2017-07-26T14:43:21.591Z,24.75
2017-07-26T14:45:49.066Z,24.80
2017-07-26T14:48:16.602Z,24.92
2017-07-26T14:50:44.779Z,24.94
2017-07-26T14:53:12.159Z,25.03
2017-07-26T14:55:40.239Z,25.15
2017-07-26T14:58:08.399Z,25.14
2017-07-26T15:00:35.790Z,25.14
2017-07-26T15:03:03.353Z,25.25
2017-07-26T15:05:31.214Z,25.34
2017-07-26T15:07:59.763Z,25.51
2017-07-26T15:10:28.051Z,25.30
2017-07-26T15:12:55.462Z,25.28
2017-07-26T15:15:23.030Z,25.39
2017-07-26T15:17:50.690Z,25.49
2017-07-26T15:20:18.214Z,25.08
2017-07-26T15:22:45.954Z,25.12
2017-07-26T15:25:13.996Z,24.97
2017-07-26T15:27:41.406Z,25.14
2017-07-26T15:30:08.867Z,25.36
2017-07-26T15:32:36.454Z,25.50
2017-07-26T15:35:03.852Z,25.38
2017-07-26T15:37:31.298Z,25.33
2017-07-26T15:39:58.938Z,24.87
2017-07-26T15:42:26.949Z,24.59
2017-07-26T15:44:54.336Z,24.48
2017-07-26T15:47:21.910Z,24.68
2017-07-26T15:49:49.322Z,24.81
2017-07-26T15:52:17.758Z,24.73
2017-07-26T15:54:45.180Z,24.69
2017-07-26T15:57:12.566Z,24.83
2017-07-26T15:59:39.962Z,24.68
2017-07-26T16:02:07.382Z,24.63
2017-07-26T16:04:34.816Z,24.49
2017-07-26T16:07:02.208Z,24.42
2017-07-26T16:09:29.630Z,24.59
2017-07-26T16:11:57.038Z,24.51
2017-07-26T16:14:24.464Z,24.41
2017-07-26T16:16:52.126Z,24.49
2017-07-26T16:19:19.538Z,24.60
2017-07-26T16:21:46.937Z,24.47
2017-07-26T16:24:14.362Z,24.39
2017-07-26T16:26:41.794Z,24.34
2017-07-26T16:29:09.191Z,24.14
2017-07-26T16:31:36.650Z,24.11
2017-07-26T16:34:04.099Z,24.00
2017-07-26T16:36:31.485Z,23.96
2017-07-26T16:38:58.886Z,23.78
2017-07-26T16:41:26.279Z,23.79
2017-07-26T16:43:53.674Z,23.79
2017-07-26T16:46:21.122Z,23.79
2017-07-26T16:48:48.526Z,23.76
2017-07-26T16:51:15.931Z,23.67
2017-07-26T16:53:43.470Z,23.60
2017-07-26T16:56:10.891Z,23.69
2017-07-26T16:58:38.303Z,23.68
2017-07-26T17:01:09.831Z,23.70
2017-07-26T17:03:37.258Z,23.72
2017-07-26T17:06:04.634Z,23.80
2017-07-26T17:08:32.080Z,23.86
2017-07-26T17:10:59.515Z,23.88
2017-07-26T17:13:26.905Z,23.92
2017-07-26T17:15:54.342Z,23.93
2017-07-26T17:18:21.726Z,23.88
2017-07-26T17:20:49.111Z,23.78
2017-07-26T17:23:16.546Z,23.79
2017-07-26T17:25:43.927Z,23.78
2017-07-26T17:28:11.362Z,23.73
2017-07-26T17:30:38.898Z,23.65
2017-07-26T17:33:06.291Z,23.57
2017-07-26T17:35:33.674Z,23.52
2017-07-26T17:38:01.214Z,23.54
2017-07-26T17:40:28.597Z,23.54
2017-07-26T17:42:55.985Z,23.49
2017-07-26T17:45:23.622Z,23.42
2017-07-26T17:47:51.007Z,23.38
2017-07-26T17:50:19.208Z,23.36
2017-07-26T17:52:46.742Z,23.31
2017-07-26T17:55:14.131Z,23.25
2017-07-26T17:57:41.515Z,23.17
2017-07-26T18:00:08.923Z,23.10
2017-07-26T18:02:36.311Z,23.09
2017-07-26T18:05:03.707Z,23.01
2017-07-26T18:07:31.296Z,23.02
2017-07-26T18:09:58.687Z,22.92
2017-07-26T18:12:26.066Z,22.86
2017-07-26T18:14:53.602Z,22.77
2017-07-26T18:17:21.002Z,22.70
2017-07-26T18:19:48.393Z,22.66
2017-07-26T18:22:15.882Z,22.63
2017-07-26T18:24:43.275Z,22.61
2017-07-26T18:27:11.806Z,22.58
2017-07-26T18:29:39.354Z,22.62
2017-07-26T18:32:07.227Z,22.58
2017-07-26T18:34:34.910Z,22.53
2017-07-26T18:37:02.491Z,22.46
2017-07-26T18:39:30.744Z,22.38
2017-07-26T18:41:58.160Z,22.28
2017-07-26T18:44:25.675Z,22.18
2017-07-26T18:46:53.085Z,22.08
2017-07-26T18:49:20.491Z,22.03
2017-07-26T18:51:47.898Z,21.97
2017-07-26T18:54:15.302Z,21.95
2017-07-26T18:56:42.720Z,21.93
2017-07-26T18:59:10.134Z,21.96
2017-07-26T19:01:37.534Z,21.96
2017-07-26T19:04:04.926Z,21.89
2017-07-26T19:06:32.726Z,21.85
2017-07-26T19:09:00.118Z,21.84
2017-07-26T19:11:27.510Z,21.79
2017-07-26T19:13:55.239Z,21.76
2017-07-26T19:16:22.626Z,21.73
2017-07-26T19:18:50.018Z,21.67
2017-07-26T19:21:17.467Z,21.65
2017-07-26T19:23:44.854Z,21.62
2017-07-26T19:26:12.252Z,21.59
2017-07-26T19:28:39.662Z,21.54
2017-07-26T19:31:07.063Z,21.48
2017-07-26T19:33:34.473Z,21.44
2017-07-26T19:36:02.026Z,21.40
2017-07-26T19:38:29.420Z,21.36
2017-07-26T19:40:56.810Z,21.34
2017-07-26T19:43:24.314Z,21.28
2017-07-26T19:45:51.706Z,21.29
2017-07-26T19:48:19.098Z,21.26
2017-07-26T19:50:46.646Z,21.21
2017-07-26T19:53:14.043Z,21.19
2017-07-26T19:55:41.435Z,21.17
2017-07-26T19:58:08.999Z,21.12
2017-07-26T20:00:36.395Z,21.09
2017-07-26T20:03:03.791Z,21.07
2017-07-26T20:05:31.338Z,21.06
2017-07-26T20:07:58.746Z,21.03
2017-07-26T20:10:26.138Z,20.99
2017-07-26T20:12:53.695Z,20.97
2017-07-26T20:15:21.950Z,20.96
2017-07-26T20:17:49.347Z,20.96
2017-07-26T20:20:16.894Z,20.93
2017-07-26T20:22:44.291Z,20.92
2017-07-26T20:25:11.678Z,20.95
2017-07-26T20:27:39.093Z,20.98
2017-07-26T20:30:06.486Z,20.97
2017-07-26T20:32:33.880Z,20.97
2017-07-26T20:35:01.296Z,20.98
2017-07-26T20:37:28.686Z,21.00
2017-07-26T20:39:56.078Z,21.01
2017-07-26T20:42:23.632Z,21.04
2017-07-26T20:44:51.022Z,21.01
2017-07-26T20:47:18.418Z,21.04
2017-07-26T20:49:45.962Z,21.04
2017-07-26T20:52:13.364Z,21.06
2017-07-26T20:54:40.755Z,21.04
2017-07-26T20:57:08.191Z,21.06
2017-07-26T20:59:35.582Z,21.08
2017-07-26T21:02:02.966Z,21.07
2017-07-26T21:04:30.515Z,21.08
2017-07-26T21:06:57.925Z,21.05
2017-07-26T21:09:25.314Z,21.09
2017-07-26T21:11:52.755Z,21.08
2017-07-26T21:14:20.142Z,21.10
2017-07-26T21:16:47.538Z,21.09
2017-07-26T21:19:14.958Z,21.14
2017-07-26T21:21:42.345Z,21.10
2017-07-26T21:24:09.739Z,21.11
2017-07-26T21:26:37.386Z,21.13
2017-07-26T21:29:04.777Z,21.05
2017-07-26T21:31:32.170Z,21.04
2017-07-26T21:33:59.763Z,21.05
2017-07-26T21:36:27.154Z,21.01
2017-07-26T21:38:54.555Z,21.02
2017-07-26T21:41:22.339Z,21.00
2017-07-26T21:43:49.735Z,20.95
2017-07-26T21:46:17.135Z,20.84
2017-07-26T21:48:44.918Z,20.89
2017-07-26T21:51:12.319Z,20.90
2017-07-26T21:53:39.704Z,20.86
2017-07-26T21:56:07.288Z,20.85
2017-07-26T21:58:34.683Z,20.87
2017-07-26T22:01:02.074Z,20.86
2017-07-26T22:03:29.483Z,20.84
2017-07-26T22:05:56.878Z,20.74
2017-07-26T22:08:24.267Z,20.69
2017-07-26T22:10:51.719Z,20.63
2017-07-26T22:13:19.110Z,20.58
2017-07-26T22:15:46.506Z,20.50
2017-07-26T22:18:14.002Z,20.45
2017-07-26T22:20:41.390Z,20.49
2017-07-26T22:23:08.779Z,20.49
2017-07-26T22:25:36.321Z,20.50
2017-07-26T22:28:03.714Z,20.53
2017-07-26T22:30:31.103Z,20.53
2017-07-26T22:32:58.514Z,20.56
2017-07-26T22:35:25.895Z,20.55
2017-07-26T22:37:53.286Z,20.59
2017-07-26T22:40:21.111Z,20.63
2017-07-26T22:42:48.503Z,20.66
2017-07-26T22:45:15.890Z,20.64
2017-07-26T22:47:43.302Z,20.64
2017-07-26T22:50:10.706Z,20.63
2017-07-26T22:52:38.093Z,20.64
2017-07-26T22:55:05.515Z,20.65
2017-07-26T22:57:32.903Z,20.64
2017-07-26T23:00:00.291Z,20.64
2017-07-26T23:02:27.863Z,20.65
2017-07-26T23:04:55.255Z,20.67
2017-07-26T23:07:22.665Z,20.72
2017-07-26T23:09:50.102Z,20.60
2017-07-26T23:12:17.511Z,20.58
2017-07-26T23:14:44.894Z,20.58
2017-07-26T23:17:12.329Z,20.63
2017-07-26T23:19:39.765Z,20.64
2017-07-26T23:22:07.174Z,20.69
2017-07-26T23:24:34.734Z,20.68
2017-07-26T23:27:02.118Z,20.72
2017-07-26T23:29:29.536Z,20.76
2017-07-26T23:31:57.030Z,20.77
2017-07-26T23:34:24.465Z,20.60
2017-07-26T23:36:51.874Z,20.68
2017-07-26T23:39:19.287Z,20.66
2017-07-26T23:41:46.711Z,20.68
2017-07-26T23:44:14.104Z,20.64
2017-07-26T23:46:41.558Z,20.54
2017-07-26T23:49:08.946Z,20.53
2017-07-26T23:51:36.379Z,20.52
2017-07-26T23:54:04.050Z,20.52
2017-07-26T23:56:31.450Z,20.49
2017-07-26T23:58:59.452Z,20.51
